Terminal Aerodrome Forecast
Issued by NWS Charleston, WV

Home | Current Version | Previous Version | Text Only | Print | Product List | Glossary On
Versions: 1 2 3 4 5 6 7 8 9 10 11 12 13 14 15 16 17 18 19 20 21 22
062
FTUS41 KRLX 261011 AAC
TAFBKW
TAF AMD
KBKW 261011Z 2610/2706 15008KT 6SM BR BKN040
      TEMPO 2610/2613 5SM BR SCT004
     FM261400 19007KT P6SM BKN025
     FM261800 22010G19KT P6SM BKN050
     FM261900 22009KT 6SM SHRA BKN050
     FM262100 22009KT 2SM SHRA VCTS BKN060CB
     FM270000 31008KT 3SM -SHRA OVC008
     FM270200 32007KT 6SM BR OVC003=

USA.gov is the U.S. government's official web portal to all federal, state and local government web resources and services.